createdAt,value
2018-02-24T00:00:29.732Z,37.80
2018-02-24T00:03:08.050Z,37.10
2018-02-24T00:05:47.502Z,38.40
2018-02-24T00:08:24.746Z,38.30
2018-02-24T00:11:03.680Z,39.00
2018-02-24T00:13:42.434Z,38.20
2018-02-24T00:16:20.046Z,38.10
2018-02-24T00:18:59.898Z,38.60
2018-02-24T00:21:39.702Z,38.70
2018-02-24T00:24:19.418Z,38.20
2018-02-24T00:26:58.954Z,39.10
2018-02-24T00:29:37.594Z,39.50
2018-02-24T00:32:16.195Z,40.00
2018-02-24T00:34:54.771Z,39.90
2018-02-24T00:37:34.395Z,40.60
2018-02-24T00:40:13.221Z,40.40
2018-02-24T00:42:51.811Z,40.30
2018-02-24T00:45:30.064Z,40.50
2018-02-24T00:48:10.716Z,40.30
2018-02-24T00:50:48.049Z,40.20
2018-02-24T00:53:27.749Z,40.10
2018-02-24T00:56:08.404Z,39.90
2018-02-24T00:58:51.292Z,39.70
2018-02-24T01:01:30.313Z,40.90
2018-02-24T01:04:11.067Z,39.40
2018-02-24T01:06:49.931Z,38.20
2018-02-24T01:09:28.053Z,38.00
2018-02-24T01:12:10.349Z,39.30
2018-02-24T01:14:50.363Z,39.20
2018-02-24T01:17:31.055Z,38.10
2018-02-24T01:20:09.972Z,37.90
2018-02-24T01:22:49.026Z,38.50
2018-02-24T01:25:28.718Z,38.40
2018-02-24T01:28:07.355Z,38.80
2018-02-24T01:30:46.706Z,38.70
2018-02-24T01:33:26.416Z,39.30
2018-02-24T01:36:04.947Z,39.90
2018-02-24T01:38:43.565Z,40.40
2018-02-24T01:41:22.246Z,39.20
2018-02-24T01:44:00.685Z,39.60
2018-02-24T01:46:39.265Z,39.90
2018-02-24T01:49:18.228Z,39.10
2018-02-24T01:51:58.791Z,39.50
2018-02-24T01:54:39.922Z,39.20
2018-02-24T01:57:18.152Z,38.80
2018-02-24T01:59:58.685Z,38.10
2018-02-24T02:02:38.301Z,39.10
2018-02-24T02:05:18.805Z,39.10
2018-02-24T02:07:57.458Z,38.80
2018-02-24T02:10:37.131Z,39.00
2018-02-24T02:13:15.574Z,38.70
2018-02-24T02:15:55.096Z,40.20
2018-02-24T02:18:35.425Z,40.10
2018-02-24T02:21:13.820Z,40.20
2018-02-24T02:23:54.215Z,39.50
2018-02-24T02:26:35.385Z,40.30
2018-02-24T02:29:14.612Z,41.20
2018-02-24T02:31:56.093Z,41.10
2018-02-24T02:34:35.438Z,41.20
2018-02-24T02:37:16.496Z,40.10
2018-02-24T02:39:56.028Z,40.80
2018-02-24T02:42:35.694Z,40.50
2018-02-24T02:45:14.311Z,40.30
2018-02-24T02:47:52.861Z,42.10
2018-02-24T02:50:31.320Z,40.80
2018-02-24T02:53:10.871Z,40.90
2018-02-24T02:55:50.477Z,41.80
2018-02-24T02:58:29.915Z,41.80
2018-02-24T03:01:08.506Z,42.50
2018-02-24T03:03:53.196Z,44.10
2018-02-24T03:06:31.977Z,43.20
2018-02-24T03:09:11.480Z,43.10
2018-02-24T03:11:51.001Z,44.30
2018-02-24T03:14:30.528Z,44.30
2018-02-24T03:17:10.173Z,44.00
2018-02-24T03:19:49.001Z,45.10
2018-02-24T03:22:28.057Z,44.60
2018-02-24T03:25:08.137Z,44.80
2018-02-24T03:27:46.520Z,45.00
2018-02-24T03:30:26.257Z,44.60
2018-02-24T03:33:04.948Z,44.80
2018-02-24T03:35:42.700Z,46.40
2018-02-24T03:38:25.766Z,46.20
2018-02-24T03:41:04.868Z,46.10
2018-02-24T03:43:43.761Z,46.30
2018-02-24T03:46:22.320Z,46.20
2018-02-24T03:49:01.090Z,47.30
2018-02-24T03:51:39.714Z,46.70
2018-02-24T03:54:18.570Z,47.50
2018-02-24T03:56:57.059Z,47.70
2018-02-24T03:59:35.199Z,47.90
2018-02-24T04:02:14.914Z,48.90
2018-02-24T04:04:54.316Z,50.60
2018-02-24T04:07:32.787Z,50.70
2018-02-24T04:10:13.168Z,50.50
2018-02-24T04:12:51.760Z,50.30
2018-02-24T04:15:31.474Z,51.10
2018-02-24T04:18:12.042Z,51.50
2018-02-24T04:20:52.666Z,51.10
2018-02-24T04:23:31.326Z,51.20
2018-02-24T04:26:10.722Z,50.80
2018-02-24T04:28:49.841Z,51.50
2018-02-24T04:31:28.856Z,51.80
2018-02-24T04:34:07.411Z,53.30
2018-02-24T04:36:45.881Z,53.30
2018-02-24T04:39:23.493Z,52.90
2018-02-24T04:42:03.958Z,53.70
2018-02-24T04:44:42.652Z,54.00
2018-02-24T04:47:24.181Z,54.70
2018-02-24T04:50:02.730Z,54.60
2018-02-24T04:52:42.483Z,54.30
2018-02-24T04:55:22.064Z,55.10
2018-02-24T04:58:02.423Z,55.20
2018-02-24T05:00:41.225Z,55.20
2018-02-24T05:03:20.042Z,55.30
2018-02-24T05:06:00.559Z,55.40
2018-02-24T05:08:39.754Z,55.40
2018-02-24T05:11:18.420Z,56.20
2018-02-24T05:13:57.187Z,56.10
2018-02-24T05:16:35.984Z,56.70
2018-02-24T05:19:14.487Z,57.00
2018-02-24T05:21:55.297Z,56.40
2018-02-24T05:24:36.298Z,57.60
2018-02-24T05:27:16.440Z,57.50
2018-02-24T05:29:56.154Z,57.30
2018-02-24T05:32:35.076Z,56.90
2018-02-24T05:35:13.861Z,57.80
2018-02-24T05:37:53.568Z,58.10
2018-02-24T05:40:34.117Z,57.70
2018-02-24T05:43:12.654Z,58.00
2018-02-24T05:45:51.146Z,57.50
2018-02-24T05:48:29.816Z,58.20
2018-02-24T05:51:09.522Z,58.20
2018-02-24T05:53:48.165Z,57.90
2018-02-24T05:56:27.604Z,58.80
2018-02-24T05:59:06.244Z,58.40
2018-02-24T06:01:43.812Z,58.60
2018-02-24T06:04:22.196Z,58.80
2018-02-24T06:07:02.608Z,59.80
2018-02-24T06:09:42.186Z,59.90
2018-02-24T06:12:20.845Z,59.80
2018-02-24T06:14:59.272Z,60.10
2018-02-24T06:17:38.857Z,59.40
2018-02-24T06:20:19.581Z,59.40
2018-02-24T06:22:58.192Z,59.60
2018-02-24T06:25:38.994Z,59.30
2018-02-24T06:28:17.576Z,59.40
2018-02-24T06:30:55.945Z,59.90
2018-02-24T06:33:34.464Z,60.10
2018-02-24T06:36:14.112Z,60.20
2018-02-24T06:38:52.821Z,60.30
2018-02-24T06:41:34.289Z,60.90
2018-02-24T06:44:11.849Z,60.80
2018-02-24T06:46:52.443Z,60.50
2018-02-24T06:49:32.199Z,60.30
2018-02-24T06:52:11.780Z,60.60
2018-02-24T06:54:51.108Z,60.70
2018-02-24T06:57:29.799Z,60.40
2018-02-24T07:00:09.528Z,60.00
2018-02-24T07:02:49.114Z,60.00
2018-02-24T07:05:27.740Z,60.00
2018-02-24T07:08:08.175Z,59.60
2018-02-24T07:10:47.901Z,60.30
2018-02-24T07:13:26.573Z,59.80
2018-02-24T07:16:05.980Z,59.60
2018-02-24T07:18:44.609Z,59.20
2018-02-24T07:21:23.230Z,59.80
2018-02-24T07:24:01.949Z,60.10
2018-02-24T07:26:40.483Z,60.30
2018-02-24T07:29:19.945Z,60.00
2018-02-24T07:32:01.460Z,60.00
2018-02-24T07:34:40.087Z,59.80
2018-02-24T07:37:19.894Z,59.90
2018-02-24T07:39:58.791Z,60.30
2018-02-24T07:42:37.340Z,60.40
2018-02-24T07:45:18.029Z,60.60
2018-02-24T07:47:57.469Z,60.90
2018-02-24T07:50:36.141Z,60.70
2018-02-24T07:53:15.839Z,60.80
2018-02-24T07:55:54.615Z,60.80
2018-02-24T07:58:32.936Z,60.90
2018-02-24T08:01:12.370Z,61.00
2018-02-24T08:03:51.130Z,60.70
2018-02-24T08:06:30.700Z,61.00
2018-02-24T08:09:09.346Z,61.30
2018-02-24T08:11:47.829Z,61.70
2018-02-24T08:14:26.462Z,61.90
2018-02-24T08:17:03.984Z,61.90
2018-02-24T08:19:42.614Z,62.10
2018-02-24T08:22:21.084Z,62.40
2018-02-24T08:25:03.770Z,62.90
2018-02-24T08:27:43.370Z,63.00
2018-02-24T08:30:22.863Z,62.90
2018-02-24T08:33:01.879Z,63.00
2018-02-24T08:35:40.262Z,63.00
2018-02-24T08:38:20.984Z,63.10
2018-02-24T08:41:00.625Z,63.20
2018-02-24T08:43:40.144Z,64.50
2018-02-24T08:46:18.528Z,64.50
2018-02-24T08:49:04.093Z,65.40
2018-02-24T08:51:42.562Z,65.80
2018-02-24T08:54:21.183Z,66.10
2018-02-24T08:57:00.711Z,66.20
2018-02-24T08:59:41.156Z,65.90
2018-02-24T09:02:19.764Z,66.00
2018-02-24T09:05:01.398Z,66.70
2018-02-24T09:07:41.126Z,67.00
2018-02-24T09:10:19.687Z,68.30
2018-02-24T09:12:58.101Z,69.80
2018-02-24T09:15:36.700Z,71.10
2018-02-24T09:18:15.267Z,71.70
2018-02-24T09:20:54.014Z,72.40
2018-02-24T09:23:34.622Z,73.10
2018-02-24T09:26:15.055Z,72.90
2018-02-24T09:28:54.670Z,73.10
2018-02-24T09:31:35.205Z,73.60
2018-02-24T09:34:13.780Z,73.80
2018-02-24T09:36:56.375Z,74.30
2018-02-24T09:39:35.027Z,74.40
2018-02-24T09:42:13.536Z,75.40
2018-02-24T09:44:51.948Z,75.70
2018-02-24T09:47:30.302Z,75.60
2018-02-24T09:50:08.777Z,76.00
2018-02-24T09:52:47.385Z,76.10
2018-02-24T09:55:27.042Z,76.40
2018-02-24T09:58:05.629Z,77.00
2018-02-24T10:00:44.362Z,77.10
2018-02-24T10:03:23.828Z,77.40
2018-02-24T10:06:01.576Z,78.10
2018-02-24T10:08:40.033Z,77.70
2018-02-24T10:11:18.623Z,77.60
2018-02-24T10:13:57.381Z,78.00
2018-02-24T10:16:35.965Z,78.40
2018-02-24T10:19:14.554Z,78.80
2018-02-24T10:21:53.007Z,79.20
2018-02-24T10:24:31.581Z,79.40
2018-02-24T10:27:10.134Z,79.80
2018-02-24T10:29:48.805Z,79.90
2018-02-24T10:32:29.316Z,80.20
2018-02-24T10:35:08.915Z,80.50
2018-02-24T10:37:48.472Z,80.70
2018-02-24T10:40:28.091Z,80.90
2018-02-24T10:43:07.673Z,81.80
2018-02-24T10:45:46.510Z,81.80
2018-02-24T10:48:25.063Z,81.40
2018-02-24T10:51:03.549Z,81.20
2018-02-24T10:53:44.150Z,81.40
2018-02-24T10:56:23.848Z,81.70
2018-02-24T10:59:03.750Z,81.40
2018-02-24T11:01:43.349Z,81.90
2018-02-24T11:04:24.151Z,81.90
2018-02-24T11:07:04.979Z,82.50
2018-02-24T11:09:45.614Z,83.00
2018-02-24T11:12:25.196Z,83.00
2018-02-24T11:15:03.783Z,83.30
2018-02-24T11:17:42.422Z,83.50
2018-02-24T11:20:21.019Z,84.00
2018-02-24T11:22:59.716Z,84.30
2018-02-24T11:25:38.065Z,84.90
2018-02-24T11:28:16.723Z,85.20
2018-02-24T11:30:56.992Z,85.50
2018-02-24T11:33:36.241Z,86.00
2018-02-24T11:36:13.865Z,85.70
2018-02-24T11:38:53.554Z,86.40
2018-02-24T11:41:32.870Z,86.40
2018-02-24T11:44:11.736Z,86.60
2018-02-24T11:46:50.242Z,86.60
2018-02-24T11:49:28.880Z,86.60
2018-02-24T11:52:08.451Z,86.60
2018-02-24T11:54:46.955Z,86.50
2018-02-24T11:57:27.576Z,86.60
2018-02-24T12:00:04.947Z,86.50
2018-02-24T12:02:44.273Z,86.40
2018-02-24T12:05:23.034Z,86.30
2018-02-24T12:08:01.615Z,86.40
2018-02-24T12:10:40.205Z,86.40
2018-02-24T12:13:18.921Z,86.50
2018-02-24T12:15:59.335Z,86.30
2018-02-24T12:18:38.031Z,86.50
2018-02-24T12:21:17.088Z,86.50
2018-02-24T12:23:57.035Z,86.90
2018-02-24T12:26:35.719Z,86.90
2018-02-24T12:29:14.170Z,87.20
2018-02-24T12:31:53.777Z,87.30
2018-02-24T12:34:32.210Z,87.30
2018-02-24T12:37:12.697Z,88.10
2018-02-24T12:39:50.314Z,88.40
2018-02-24T12:42:29.013Z,88.20
2018-02-24T12:45:07.551Z,88.20
2018-02-24T12:47:46.175Z,88.30
2018-02-24T12:50:24.808Z,88.40
2018-02-24T12:53:04.152Z,88.50
2018-02-24T12:55:43.135Z,88.50
2018-02-24T12:58:21.831Z,88.50
2018-02-24T13:01:02.204Z,88.40
2018-02-24T13:03:40.819Z,88.50
2018-02-24T13:06:19.443Z,88.50
2018-02-24T13:08:57.971Z,88.60
2018-02-24T13:11:36.391Z,89.00
2018-02-24T13:14:15.087Z,89.10
2018-02-24T13:16:53.673Z,89.30
2018-02-24T13:19:33.533Z,89.40
2018-02-24T13:22:13.938Z,89.10
2018-02-24T13:24:52.572Z,89.40
2018-02-24T13:27:34.165Z,89.60
2018-02-24T13:30:14.371Z,89.30
2018-02-24T13:32:54.165Z,89.50
2018-02-24T13:35:32.931Z,89.30
2018-02-24T13:38:11.501Z,89.30
2018-02-24T13:40:50.078Z,89.30
2018-02-24T13:43:28.654Z,89.40
2018-02-24T13:46:08.486Z,89.40
2018-02-24T13:48:50.552Z,89.60
2018-02-24T13:51:29.459Z,89.20
2018-02-24T13:54:08.126Z,89.10
2018-02-24T13:56:47.581Z,89.00
2018-02-24T13:59:41.330Z,89.00
2018-02-24T14:02:19.919Z,88.90
2018-02-24T14:04:58.355Z,88.50
2018-02-24T14:07:36.953Z,88.60
2018-02-24T14:10:15.268Z,88.20
2018-02-24T14:12:55.106Z,88.40
2018-02-24T14:15:34.662Z,88.50
2018-02-24T14:18:14.527Z,88.50
2018-02-24T14:20:53.002Z,88.40
2018-02-24T14:23:32.025Z,88.30
2018-02-24T14:26:12.116Z,88.50
2018-02-24T14:28:51.841Z,88.30
2018-02-24T14:31:30.336Z,87.90
2018-02-24T14:34:09.521Z,87.90
2018-02-24T14:36:48.569Z,87.80
2018-02-24T14:39:29.287Z,87.50
2018-02-24T14:42:07.905Z,86.60
2018-02-24T14:44:46.590Z,86.60
2018-02-24T14:47:25.246Z,86.30
2018-02-24T14:50:04.926Z,86.40
2018-02-24T14:52:43.586Z,85.90
2018-02-24T14:55:24.330Z,85.80
2018-02-24T14:58:02.953Z,85.70
2018-02-24T15:00:40.535Z,85.50
2018-02-24T15:03:20.385Z,85.20
2018-02-24T15:05:59.071Z,85.80
2018-02-24T15:08:37.539Z,86.00
2018-02-24T15:11:17.399Z,86.10
2018-02-24T15:13:55.858Z,86.20
2018-02-24T15:16:34.308Z,86.60
2018-02-24T15:19:12.912Z,86.80
2018-02-24T15:21:51.614Z,87.00
2018-02-24T15:24:30.224Z,87.30
2018-02-24T15:27:10.686Z,86.90
2018-02-24T15:29:50.343Z,86.80
2018-02-24T15:32:28.928Z,86.90
2018-02-24T15:35:09.549Z,86.50
2018-02-24T15:37:49.237Z,86.60
2018-02-24T15:40:27.882Z,86.40
2018-02-24T15:43:06.476Z,85.90
2018-02-24T15:45:47.098Z,85.40
2018-02-24T15:48:27.962Z,85.20
2018-02-24T15:51:07.494Z,84.90
2018-02-24T15:53:45.970Z,84.40
2018-02-24T15:56:25.689Z,84.20
2018-02-24T15:59:04.943Z,84.10
2018-02-24T16:01:43.792Z,84.10
2018-02-24T16:04:22.245Z,84.00
2018-02-24T16:07:00.705Z,84.30
2018-02-24T16:09:39.429Z,85.20
2018-02-24T16:12:17.068Z,85.80
2018-02-24T16:14:56.769Z,85.40
2018-02-24T16:17:35.404Z,82.80
2018-02-24T16:20:13.836Z,81.60
2018-02-24T16:22:52.437Z,80.70
2018-02-24T16:25:31.017Z,78.70
2018-02-24T16:28:11.667Z,76.10
2018-02-24T16:30:50.244Z,76.10
2018-02-24T16:33:29.109Z,75.90
2018-02-24T16:36:08.029Z,73.10
2018-02-24T16:38:47.640Z,72.80
2018-02-24T16:41:27.105Z,72.10
2018-02-24T16:44:05.748Z,72.30
2018-02-24T16:46:45.291Z,73.20
2018-02-24T16:49:22.898Z,73.40
2018-02-24T16:52:01.581Z,72.80
2018-02-24T16:54:40.271Z,72.10
2018-02-24T16:57:18.766Z,71.60
2018-02-24T16:59:59.407Z,73.30
2018-02-24T17:02:38.053Z,73.00
2018-02-24T17:05:16.601Z,67.40
2018-02-24T17:07:55.163Z,64.30
2018-02-24T17:10:38.886Z,62.20
2018-02-24T17:13:16.597Z,61.70
2018-02-24T17:15:55.280Z,64.20
2018-02-24T17:18:37.836Z,65.80
2018-02-24T17:21:16.451Z,65.80
2018-02-24T17:23:55.039Z,61.30
2018-02-24T17:26:35.836Z,52.20
2018-02-24T17:29:14.424Z,52.20
2018-02-24T17:31:54.096Z,48.00
2018-02-24T17:34:34.696Z,48.00
2018-02-24T17:37:15.399Z,41.30
2018-02-24T17:39:53.756Z,38.90
2018-02-24T17:42:32.412Z,34.90
2018-02-24T17:45:13.988Z,34.20
2018-02-24T17:47:53.486Z,33.60
2018-02-24T17:50:31.837Z,33.80
2018-02-24T17:53:10.517Z,33.20
2018-02-24T17:55:49.064Z,32.10
2018-02-24T17:58:28.686Z,31.80
2018-02-24T18:01:07.062Z,31.70
2018-02-24T18:03:45.574Z,35.20
2018-02-24T18:06:24.104Z,34.10
2018-02-24T18:09:02.560Z,34.90
2018-02-24T18:11:41.185Z,33.70
2018-02-24T18:14:19.807Z,35.00
2018-02-24T18:16:58.361Z,34.30
2018-02-24T18:19:36.918Z,36.00
2018-02-24T18:22:17.434Z,35.20
2018-02-24T18:24:54.034Z,39.90
2018-02-24T18:27:32.402Z,39.00
2018-02-24T18:30:11.232Z,34.70
2018-02-24T18:32:50.805Z,36.40
2018-02-24T18:35:29.299Z,34.80
2018-02-24T18:38:09.773Z,35.30
2018-02-24T18:40:48.441Z,36.40
2018-02-24T18:43:27.126Z,34.20
2018-02-24T18:46:05.677Z,35.20
2018-02-24T18:48:44.837Z,36.40
2018-02-24T18:51:22.980Z,35.70
2018-02-24T18:54:01.702Z,35.50
2018-02-24T18:56:41.202Z,35.10
2018-02-24T18:59:19.541Z,32.50
2018-02-24T19:01:58.321Z,33.30
2018-02-24T19:04:38.038Z,32.80
2018-02-24T19:07:18.805Z,32.80
2018-02-24T19:09:59.358Z,33.70
2018-02-24T19:12:40.132Z,33.50
2018-02-24T19:15:18.726Z,34.10
2018-02-24T19:17:55.768Z,35.30
2018-02-24T19:20:34.695Z,33.80
2018-02-24T19:23:13.491Z,35.00
2018-02-24T19:25:52.111Z,33.90
2018-02-24T19:28:30.727Z,30.60
2018-02-24T19:31:11.638Z,30.00
2018-02-24T19:33:50.246Z,29.40
2018-02-24T19:36:28.773Z,27.90
2018-02-24T19:39:06.384Z,27.40
2018-02-24T19:41:45.065Z,25.30
2018-02-24T19:44:23.851Z,28.70
2018-02-24T19:47:07.432Z,28.60
2018-02-24T19:49:46.050Z,26.90
2018-02-24T19:52:25.165Z,28.00
2018-02-24T19:55:03.593Z,26.10
2018-02-24T19:57:43.277Z,28.50
2018-02-24T20:00:21.826Z,28.10
2018-02-24T20:03:01.360Z,25.40
2018-02-24T20:05:41.736Z,24.90
2018-02-24T20:08:21.174Z,26.80
2018-02-24T20:10:59.740Z,26.30
2018-02-24T20:13:38.327Z,25.80
2018-02-24T20:16:17.653Z,28.60
2018-02-24T20:18:57.510Z,25.90
2018-02-24T20:21:38.101Z,25.80
2018-02-24T20:24:17.604Z,24.90
2018-02-24T20:26:56.092Z,28.30
2018-02-24T20:29:35.659Z,26.10
2018-02-24T20:32:13.899Z,25.10
2018-02-24T20:34:54.501Z,25.20
2018-02-24T20:37:33.849Z,27.10
2018-02-24T20:40:13.657Z,28.20
2018-02-24T20:42:53.298Z,27.80
2018-02-24T20:45:31.791Z,29.30
2018-02-24T20:48:10.460Z,29.20
2018-02-24T20:50:50.021Z,33.20
2018-02-24T20:53:28.510Z,33.20
2018-02-24T20:56:07.891Z,32.10
2018-02-24T20:58:47.228Z,31.70
2018-02-24T21:01:25.715Z,33.00
2018-02-24T21:04:05.419Z,32.70
2018-02-24T21:06:48.123Z,32.90
2018-02-24T21:09:26.512Z,33.90
2018-02-24T21:12:05.106Z,30.90
2018-02-24T21:14:43.822Z,30.30
2018-02-24T21:17:23.432Z,34.10
2018-02-24T21:20:04.556Z,29.50
2018-02-24T21:22:43.657Z,29.40
2018-02-24T21:25:22.243Z,28.80
2018-02-24T21:28:00.688Z,28.30
2018-02-24T21:30:39.120Z,28.90
2018-02-24T21:33:16.569Z,29.70
2018-02-24T21:35:55.167Z,31.70
2018-02-24T21:38:33.645Z,30.90
2018-02-24T21:41:12.086Z,31.60
2018-02-24T21:43:51.662Z,29.90
2018-02-24T21:46:32.369Z,32.50
2018-02-24T21:49:10.959Z,32.10
2018-02-24T21:51:48.496Z,34.60
2018-02-24T21:54:30.055Z,33.50
2018-02-24T21:57:08.695Z,33.80
2018-02-24T21:59:47.089Z,33.70
2018-02-24T22:02:25.644Z,34.90
2018-02-24T22:05:04.080Z,32.50
2018-02-24T22:07:43.636Z,30.00
2018-02-24T22:10:23.144Z,29.80
2018-02-24T22:13:01.487Z,29.80
2018-02-24T22:15:42.361Z,25.80
2018-02-24T22:18:21.891Z,27.30
2018-02-24T22:21:01.271Z,28.40
2018-02-24T22:23:40.107Z,28.00
2018-02-24T22:26:20.623Z,27.40
2018-02-24T22:28:59.224Z,28.40
2018-02-24T22:31:38.498Z,27.10
2018-02-24T22:34:17.080Z,29.40
2018-02-24T22:36:56.730Z,37.80
2018-02-24T22:39:36.078Z,40.40
2018-02-24T22:42:15.738Z,40.30
2018-02-24T22:44:53.411Z,41.10
2018-02-24T22:47:38.183Z,40.30
2018-02-24T22:50:16.788Z,40.00
2018-02-24T22:52:55.203Z,40.60
2018-02-24T22:55:33.735Z,39.30
2018-02-24T22:58:12.320Z,40.70
2018-02-24T23:00:51.860Z,36.70
2018-02-24T23:03:31.310Z,36.40
2018-02-24T23:06:09.779Z,38.30
2018-02-24T23:08:47.448Z,37.50
2018-02-24T23:11:26.032Z,35.90
2018-02-24T23:14:04.486Z,36.00
2018-02-24T23:45:25.868Z,47.40
2018-02-24T23:47:56.503Z,47.20
2018-02-24T23:50:27.074Z,48.80
2018-02-24T23:52:57.826Z,48.70
2018-02-24T23:55:29.091Z,46.80
2018-02-24T23:57:59.971Z,47.30
